Latest Weather Observations for Christmas Creek

IDW60801

Issued at 4:33 pm WST Tuesday 22 October 2019 (issued every 10 minutes, with the page automatically refreshed every 10 minutes)

About weather observations | Map of weather stations | Latest weather observations for WA | Other Formats
Station Details ID: 505049 Name: CHRISTMAS CREEK Lat: -22.36 Lon: 119.65 Height: 437.21 m
Data from the previous 72 hours. | See also: Recent months for locations in Western Australia
Date/Time
WST
Temp
°C
App
Temp
°C
Dew
Point
°C
Rel
Hum
%
Delta-T
°C
Wind Press
QNH
hPa
Press
MSL
hPa
Rain since
9am
mm
Dir  Spd
km/h
Gust
km/h
Spd
kts
Gust
kts
22/04:30pm 36.4 31.2 3.6 13 17.6 SSW 20 32 11 17 1013.6 1010.9 0.0
22/04:00pm 37.0 32.1 4.0 13 17.9 S 19 30 10 16 1013.4 1010.7 0.0
22/03:30pm 36.1 31.8 3.3 13 17.5 SSW 15 22 8 12 1013.4 1010.7 0.0
22/03:00pm 36.9 31.6 2.8 12 18.1 SSW 20 32 11 17 1013.5 1010.8 0.0
22/02:30pm 36.5 32.7 3.7 13 17.7 SSE 13 26 7 14 1013.8 1011.1 0.0
22/02:00pm 35.5 30.4 2.9 13 17.2 S 19 28 10 15 1014.1 1011.4 0.0
22/01:30pm 35.5 29.4 2.9 13 17.2 S 24 37 13 20 1014.3 1011.6 0.0
22/01:00pm 35.9 28.2 3.2 13 17.4 S 33 61 18 33 1014.5 1011.8 0.0
22/12:47pm 35.8 29.2 4.2 14 17.1 S 28 48 15 26 1014.7 1012.0 0.0
22/12:30pm 35.1 29.0 4.6 15 16.5 S 26 35 14 19 1015.2 1012.5 0.0
22/12:00pm 34.8 29.9 5.3 16 16.1 SSW 20 30 11 16 1016.2 1013.5 0.0
22/11:30am 35.6 29.9 5.0 15 16.7 SSW 24 43 13 23 1016.3 1013.6 0.0
22/11:00am 34.7 29.2 6.1 17 15.8 SSW 24 35 13 19 1016.7 1014.0 0.0
22/10:30am 34.1 28.9 7.2 19 15.1 SW 24 41 13 22 1017.2 1014.5 0.0
22/10:00am 34.0 29.5 7.1 19 15.1 SW 20 35 11 19 1017.5 1014.9 0.0
22/09:30am 34.6 30.6 8.4 20 15.0 SW 19 32 10 17 1017.7 1015.1 0.0
22/09:00am 32.9 30.2 10.3 25 13.2 SSW 15 24 8 13 1017.8 1015.2 0.2
22/08:30am 30.5 27.5 10.5 29 11.6 SSW 17 24 9 13 1017.7 1015.1 0.2
22/08:00am 28.7 25.6 10.4 32 10.5 SW 17 22 9 12 1017.7 1015.1 0.2
22/07:30am 29.1 25.6 10.3 31 10.8 SW 19 32 10 17 1017.6 1015.0 0.2
22/07:00am 27.7 25.6 11.3 36 9.5 SW 13 20 7 11 1017.8 1015.2 0.2
22/06:30am 24.7 23.3 12.3 46 7.2 WSW 11 17 6 9 1017.7 1015.1 0.2
22/06:00am 22.8 22.4 12.4 52 6.0 W 6 7 3 4 1017.6 1015.0 0.2
22/05:30am 22.2 22.4 11.9 52 5.9 W 2 4 1 2 1017.6 1015.0 0.2
22/05:00am 22.5 22.8 12.2 52 5.9 W 2 6 1 3 1017.3 1014.6 0.2
22/04:30am 22.7 22.9 12.0 50 6.2 NNW 2 4 1 2 1017.2 1014.5 0.2
22/04:00am 22.0 21.5 12.0 53 5.7 SSW 6 7 3 4 1017.3 1014.6 0.2
22/03:30am 22.2 21.7 12.2 53 5.8 SSW 6 6 3 3 1017.5 1014.9 0.2
22/03:00am 23.5 22.9 12.2 49 6.5 ESE 7 11 4 6 1017.5 1014.9 0.2
22/02:30am 23.9 23.1 11.6 46 7.1 SE 7 9 4 5 1017.7 1015.1 0.2
22/02:00am 23.9 23.4 11.9 47 6.9 S 6 11 3 6 1017.9 1015.3 0.2
22/01:30am 24.8 23.9 11.4 43 7.7 SW 7 11 4 6 1017.7 1015.1 0.2
22/01:00am 26.2 24.8 10.8 38 8.8 SW 9 15 5 8 1018.2 1015.5 0.2
22/12:30am 27.1 26.5 10.3 35 9.6 SSE 4 7 2 4 1018.2 1015.5 0.2
22/12:00am 27.8 25.4 10.1 33 10.1 NE 13 15 7 8 1018.3 1015.6 0.2
 
Date/Time
WST
Temp
°C
App
Temp
°C
Dew
Point
°C
Rel
Hum
%
Delta-T
°C
Wind Press
QNH
hPa
Press
MSL
hPa
Rain since
9am
mm
Dir  Spd
km/h
Gust
km/h
Spd
kts
Gust
kts
21/11:30pm 27.9 25.1 10.1 33 10.2 NNE 15 19 8 10 1018.3 1015.6 0.2
21/11:00pm 28.0 24.4 9.8 32 10.3 N 19 22 10 12 1018.3 1015.6 0.2
21/10:30pm 28.0 24.8 9.8 32 10.4 NNE 17 26 9 14 1018.5 1015.8 0.2
21/10:00pm 27.1 25.5 11.6 38 9.0 NE 11 15 6 8 1018.9 1016.2 0.2
21/09:30pm 27.5 25.0 11.1 36 9.5 NE 15 20 8 11 1019.2 1016.5 0.2
21/09:00pm 27.8 25.0 11.4 36 9.6 NNE 17 20 9 11 1018.9 1016.2 0.2
21/08:30pm 28.2 24.7 10.9 34 10.0 NNE 20 30 11 16 1019.0 1016.3 0.2
21/08:00pm 28.8 25.4 10.5 32 10.6 NNE 19 32 10 17 1018.8 1016.1 0.2
21/07:30pm 29.2 24.7 9.9 30 11.1 NNE 24 32 13 17 1017.2 1014.5 0.2
21/07:00pm 29.1 25.4 10.3 31 10.8 NE 20 30 11 16 1017.1 1014.4 0.2
21/06:30pm 29.2 24.8 11.7 34 10.3 ENE 26 35 14 19 1017.1 1014.4 0.2
21/06:00pm 29.8 24.7 11.8 33 10.6 NE 30 33 16 18 1016.8 1014.1 0.2
21/05:30pm 31.3 28.4 11.1 29 11.9 NNE 17 22 9 12 1016.9 1014.2 0.2
21/05:00pm 31.1 28.2 11.0 29 11.8 ENE 17 22 9 12 1017.0 1014.3 0.2
21/04:30pm 29.8 28.1 11.3 32 10.9 S 11 24 6 13 1017.7 1015.1 0.2
21/04:00pm 29.7 26.2 10.8 31 11.0 SSW 20 39 11 21 1017.3 1014.6 0.2
21/03:30pm 28.2 21.3 14.1 42 8.6 SSW 43 65 23 35 1016.5 1013.8 0.0
21/03:17pm 31.7 22.7 8.7 24 13.1 SSW 46 70 25 38 1015.9 1013.2 0.0
21/03:09pm 36.8 32.3 6.9 16 16.9 SSW 20 65 11 35 1015.1 1012.4 0.0
21/03:00pm 37.4 34.7 5.4 14 17.8 E 9 20 5 11 1014.1 1011.4 0.0
21/02:30pm 38.1 34.7 6.0 14 18.0 NE 13 19 7 10 1013.8 1011.1 0.0
21/02:00pm 37.8 34.7 5.7 14 17.9 S 11 26 6 14 1014.2 1011.5 0.0
21/01:30pm 38.0 34.2 5.9 14 18.0 SSE 15 33 8 18 1014.7 1012.0 0.0
21/01:00pm 37.3 34.7 6.3 15 17.4 E 9 17 5 9 1015.4 1012.8 0.0
21/12:30pm 36.7 32.5 5.9 15 17.2 ESE 17 32 9 17 1016.3 1013.6 0.0
21/12:00pm 36.5 34.0 8.4 18 16.2 SE 11 24 6 13 1016.7 1014.0 0.0
21/11:30am 35.9 33.7 9.4 20 15.5 ESE 11 20 6 11 1017.2 1014.5 0.0
21/11:00am 35.7 34.6 10.7 22 14.9 S 7 20 4 11 1017.6 1015.0 0.0
21/10:30am 34.1 32.8 10.0 23 14.1 SE 7 17 4 9 1018.4 1015.7 0.0
21/10:00am 33.0 32.0 10.9 26 13.1 E 7 13 4 7 1018.7 1016.0 0.0
21/09:30am 31.9 30.6 11.1 28 12.3 ENE 9 20 5 11 1019.1 1016.4 0.0
21/09:00am 31.1 30.0 12.0 31 11.4 ENE 9 17 5 9 1019.4 1016.7 3.2
21/08:30am 29.7 29.1 12.2 34 10.4 NE 7 17 4 9 1019.5 1016.9 3.2
21/08:00am 27.8 28.0 14.1 43 8.3 SSE 6 9 3 5 1019.4 1016.7 3.2
21/07:30am 26.3 26.2 13.8 46 7.5 S 7 11 4 6 1019.2 1016.5 3.2
21/07:00am 25.4 25.5 13.9 49 6.9 S 6 9 3 5 1019.0 1016.3 3.2
21/06:30am 24.6 25.6 14.4 53 6.2 E 2 6 1 3 1018.8 1016.1 3.2
21/06:00am 21.9 22.8 15.0 65 4.2 SE 4 6 2 3 1018.5 1015.8 3.2
21/05:30am 22.7 23.6 15.0 61 4.7 ENE 4 6 2 3 1017.9 1015.3 3.2
21/05:00am 23.5 23.5 14.2 56 5.6 E 7 9 4 5 1017.6 1015.0 3.2
21/04:30am 23.9 23.6 14.3 55 5.8 E 9 13 5 7 1017.5 1014.9 3.2
21/04:00am 22.9 23.5 15.2 62 4.7 NE 6 7 3 4 1017.2 1014.5 3.2
21/03:30am 22.9 23.6 14.5 59 5.0 E 4 9 2 5 1016.9 1014.2 3.2
21/03:00am 22.7 22.7 13.7 56 5.3 SSE 6 9 3 5 1017.0 1014.3 3.2
21/02:30am 23.2 22.7 13.9 56 5.5 SW 9 17 5 9 1017.0 1014.3 3.2
21/02:00am 24.3 24.7 13.8 52 6.3 WSW 4 6 2 3 1016.8 1014.1 3.2
21/01:30am 25.6 25.7 13.8 48 7.1 SSE 6 7 3 4 1016.9 1014.2 3.2
21/01:00am 26.6 26.2 13.0 43 8.1 SSW 7 11 4 6 1016.9 1014.2 3.2
21/12:30am 27.5 27.3 13.1 41 8.6 SSE 6 9 3 5 1016.9 1014.2 3.2
21/12:00am 28.7 26.8 11.7 35 10.0 NNE 13 19 7 10 1016.7 1014.0 3.2
 
Date/Time
WST
Temp
°C
App
Temp
°C
Dew
Point
°C
Rel
Hum
%
Delta-T
°C
Wind Press
QNH
hPa
Press
MSL
hPa
Rain since
9am
mm
Dir  Spd
km/h
Gust
km/h
Spd
kts
Gust
kts
20/11:30pm 29.1 25.9 11.2 33 10.5 NNE 19 26 10 14 1017.0 1014.3 3.2
20/11:00pm 28.1 27.9 13.6 41 8.8 NNW 7 9 4 5 1017.1 1014.4 3.2
20/10:30pm 28.1 28.0 14.0 42 8.6 NE 7 11 4 6 1017.3 1014.6 3.2
20/10:00pm 26.9 27.6 15.6 50 7.0 ESE 6 9 3 5 1018.1 1015.4 3.2
20/09:30pm 27.6 28.2 15.3 47 7.6 ENE 6 7 3 4 1018.8 1016.1 3.2
20/09:00pm 27.9 28.0 13.8 42 8.5 ENE 6 7 3 4 1019.1 1016.4 3.2
20/08:30pm 28.1 27.3 12.8 38 9.1 SSW 9 15 5 8 1019.3 1016.6 3.2
20/08:00pm 29.0 28.2 12.8 36 9.7 ESE 9 13 5 7 1018.7 1016.0 3.2
20/07:30pm 29.2 28.1 13.0 37 9.8 SE 11 19 6 10 1018.2 1015.5 3.2
20/07:00pm 30.1 28.1 11.6 32 10.9 SE 13 20 7 11 1018.3 1015.6 3.2
20/06:30pm 30.1 27.3 12.5 34 10.5 SSE 19 30 10 16 1017.8 1015.2 3.2
20/06:00pm 30.6 27.4 12.0 32 11.1 ESE 20 32 11 17 1016.6 1013.9 3.2
20/05:30pm 29.3 26.2 13.5 38 9.6 S 22 32 12 17 1016.6 1013.9 3.2
20/05:00pm 27.1 25.5 16.1 51 6.9 SSW 19 28 10 15 1017.1 1014.4 3.0
20/04:58pm 26.6 25.1 16.2 52 6.5 SSW 19 30 10 16 1017.0 1014.3 3.0
20/04:46pm 25.6 22.9 16.5 57 5.7 S 26 41 14 22 1016.3 1013.6 2.8
20/04:43pm 26.0 23.3 16.5 55 6.0 S 26 33 14 18 1016.2 1013.5 2.2
20/04:30pm 31.2 26.0 11.6 30 11.6 SSE 30 52 16 28 1015.1 1012.4 0.0
20/04:04pm 31.7 26.7 11.0 28 12.2 SSE 28 50 15 27 1014.4 1011.7 0.0
20/04:00pm 32.2 27.0 10.3 26 12.8 SSE 28 43 15 23 1014.7 1012.0 0.0
20/03:51pm 35.0 30.3 7.9 19 15.5 W 22 72 12 39 1014.8 1012.1 0.0
20/03:50pm 36.9 32.6 7.8 17 16.7 W 20 72 11 39 1014.6 1011.9 0.0
20/03:30pm 38.3 33.8 6.1 14 18.1 NNW 19 32 10 17 1013.8 1011.1 0.0
20/03:00pm 38.3 34.2 6.1 14 18.1 NW 17 33 9 18 1013.8 1011.1 0.0
20/02:30pm 39.9 36.2 6.3 13 19.1 NW 15 30 8 16 1014.2 1011.5 0.0
20/02:00pm 39.3 36.6 5.8 13 18.9 WNW 9 26 5 14 1014.6 1011.9 0.0
20/01:30pm 39.4 35.2 5.9 13 18.9 NW 17 30 9 16 1015.1 1012.4 0.0
20/01:00pm 39.3 35.1 5.8 13 18.9 WNW 17 33 9 18 1015.4 1012.8 0.0
20/12:30pm 38.9 36.6 5.5 13 18.7 S 7 19 4 10 1016.1 1013.4 0.0
20/12:00pm 38.0 34.6 5.9 14 18.0 WSW 13 24 7 13 1016.5 1013.8 0.0
20/11:30am 37.6 34.5 5.6 14 17.8 W 11 22 6 12 1017.0 1014.3 0.0
20/11:00am 37.4 34.7 5.4 14 17.7 WSW 9 17 5 9 1017.4 1014.7 0.0
20/10:30am 36.0 33.0 4.3 14 17.2 SW 9 22 5 12 1017.7 1015.1 0.0
20/10:00am 35.2 32.1 3.7 14 16.8 ESE 9 19 5 10 1018.1 1015.4 0.0
20/09:30am 34.3 30.7 4.9 16 15.9 E 13 22 7 12 1018.3 1015.6 0.0
20/09:00am 34.0 31.7 5.5 17 15.6 ESE 7 19 4 10 1018.6 1015.9 0.0
20/08:30am 32.3 30.7 6.5 20 14.2 SSW 4 7 2 4 1018.7 1016.0 0.0
20/08:00am 30.2 28.5 6.1 22 13.0 W 4 9 2 5 1018.7 1016.0 0.0
20/07:30am 29.5 27.6 6.8 24 12.4 W 6 13 3 7 1018.7 1016.0 0.0
20/07:00am 28.1 26.2 7.4 27 11.3 WSW 7 15 4 8 1018.6 1015.9 0.0
20/06:30am 25.3 23.8 7.0 31 9.8 SSE 4 6 2 3 1018.6 1015.9 0.0
20/06:11am 23.9 22.0 6.7 33 9.1 SSW 6 6 3 3 1018.6 1015.9 0.0
20/06:00am 23.1 21.5 6.4 34 8.7 SSW 4 6 2 3 1018.5 1015.8 0.0
20/05:49am 23.6 22.3 6.0 32 9.2 SW 2 4 1 2 1018.4 1015.7 0.0
20/05:30am 23.7 22.5 6.5 33 9.0 NNW 2 4 1 2 1018.1 1015.4 0.0
20/05:00am 23.8 22.7 7.0 34 8.9 NW 2 4 1 2 1017.8 1015.2 0.0
20/04:30am 24.6 23.1 6.8 32 9.5 NNW 4 6 2 3 1017.5 1014.9 0.0
20/04:00am 25.1 22.8 7.3 32 9.5 NNW 9 11 5 6 1017.3 1014.6 0.0
20/03:30am 25.5 23.6 7.6 32 9.7 NNW 7 11 4 6 1017.0 1014.3 0.0
20/03:00am 25.6 23.2 6.8 30 10.0 WNW 9 13 5 7 1017.0 1014.3 0.0
20/02:30am 26.4 23.8 5.9 27 10.8 NNW 9 11 5 6 1016.8 1014.1 0.0
20/02:00am 27.1 24.4 5.4 25 11.4 WNW 9 11 5 6 1016.6 1013.9 0.0
20/01:30am 28.3 24.9 5.8 24 12.0 NW 13 19 7 10 1016.8 1014.1 0.0
20/01:00am 28.8 25.2 5.0 22 12.5 NW 13 20 7 11 1017.0 1014.3 0.0
20/12:30am 29.4 25.8 4.8 21 13.0 NNW 13 19 7 10 1017.0 1014.3 0.0
20/12:00am 30.1 25.7 4.7 20 13.4 NW 17 20 9 11 1017.2 1014.5 0.0
 
Date/Time
WST
Temp
°C
App
Temp
°C
Dew
Point
°C
Rel
Hum
%
Delta-T
°C
Wind Press
QNH
hPa
Press
MSL
hPa
Rain since
9am
mm
Dir  Spd
km/h
Gust
km/h
Spd
kts
Gust
kts
19/11:30pm 30.7 25.8 5.2 20 13.6 NW 20 30 11 16 1017.4 1014.7 0.0
19/11:00pm 31.2 26.3 4.9 19 14.0 NW 20 30 11 16 1017.7 1015.1 0.0
19/10:30pm 31.3 26.9 4.9 19 14.1 NW 17 24 9 13 1017.7 1015.1 0.0
19/10:00pm 32.1 26.8 4.8 18 14.6 NW 22 28 12 15 1017.7 1015.1 0.0
19/09:30pm 32.5 27.6 5.1 18 14.8 NW 20 28 11 15 1017.6 1015.0 0.0
19/09:00pm 33.2 28.3 4.9 17 15.2 NW 20 28 11 15 1017.5 1014.9 0.0
19/08:30pm 33.9 28.1 4.6 16 15.8 NW 24 32 13 17 1017.2 1014.5 0.0
19/08:00pm 34.4 28.7 5.0 16 16.0 NW 24 35 13 19 1016.9 1014.2 0.0
19/07:30pm 34.8 29.6 5.3 16 16.1 NW 22 32 12 17 1016.5 1013.8 0.0
19/07:00pm 35.3 29.6 4.8 15 16.6 NW 24 33 13 18 1015.8 1013.1 0.0
19/06:30pm 35.9 30.4 4.2 14 17.1 NW 22 30 12 16 1015.2 1012.5 0.0
19/06:00pm 36.8 30.5 3.9 13 17.8 NNW 26 37 14 20 1014.7 1012.0 0.0
19/05:30pm 37.4 30.6 3.2 12 18.4 NW 28 41 15 22 1014.4 1011.7 0.0
19/05:00pm 38.0 31.3 3.7 12 18.6 NNW 28 41 15 22 1014.1 1011.4 0.0

Other formats

Comma delimited format used in spreadsheet applications
http://www.bom.gov.au/fwo/IDW60801/IDW60801.99737.axf

JavaScript Object Notation format (JSON) in row-major order
http://www.bom.gov.au/fwo/IDW60801/IDW60801.99737.json

Data quality

Most of these data are generated automatically and are frequently updated. Quality checks on data are not normally performed. It is possible for incorrect values to appear. Refer to information at About Latest Weather Observations and please check the disclaimer before using these data.